Time;durP1;ratioP1;P1;durP2;ratioP2;P2;SDS_P1;SDS_P2;PMS_P1;PMS_P2;Temp;Humidity;BMP_temperature;BMP_pressure;BME280_temperature;BME280_humidity;BME280_pressure;Samples;Min_cycle;Max_cycle;Signal;HPM_P1;HPM_P2
2023/03/28 00:00:18;;;;;;;;;6.00;5.00;;;;;10.73;40.63;102162.91;2111172;27;46218;-63
2023/03/28 00:01:18;;;;;;;;;5.75;5.75;;;;;10.73;40.42;102160.25;2105994;27;46423;-63
2023/03/28 00:02:19;;;;;;;;;7.25;7.00;;;;;10.72;40.02;102162.03;2109761;27;46736;-63
2023/03/28 00:03:21;;;;;;;;;6.00;5.00;;;;;10.71;40.46;102165.56;2109036;27;46897;-63
2023/03/28 00:04:22;;;;;;;;;6.00;6.00;;;;;10.71;40.87;102165.56;2112982;27;46750;-62
2023/03/28 00:05:22;;;;;;;;;5.75;5.50;;;;;10.71;40.60;102160.25;2106125;27;46711;-62
2023/03/28 00:06:25;;;;;;;;;2.40;2.40;;;;;10.70;40.77;102158.50;2106622;27;46302;-63
2023/03/28 00:07:28;;;;;;;;;6.00;5.20;;;;;10.71;40.52;102157.59;2107666;27;46662;-64
2023/03/28 00:08:28;;;;;;;;;6.00;6.00;;;;;10.70;40.49;102155.84;2109778;27;46351;-63
2023/03/28 00:09:30;;;;;;;;;4.50;3.50;;;;;10.68;40.72;102156.72;2100152;27;46542;-64
2023/03/28 00:10:31;;;;;;;;;5.00;3.80;;;;;10.66;40.68;102159.34;2105486;27;47134;-64
2023/03/28 00:11:31;;;;;;;;;5.00;4.00;;;;;10.66;40.63;102156.69;2108353;27;46682;-63
2023/03/28 00:12:31;;;;;;;;;3.50;3.00;;;;;10.66;40.55;102162.00;2108173;27;46424;-63
2023/03/28 00:13:32;;;;;;;;;3.00;3.00;;;;;10.66;40.78;102153.16;2103773;27;46261;-63
2023/03/28 00:14:34;;;;;;;;;6.50;4.50;;;;;10.66;40.65;102155.81;2106863;27;46300;-64
2023/03/28 00:15:38;;;;;;;;;4.20;3.20;;;;;10.66;40.53;102150.50;2106959;27;45582;-64
2023/03/28 00:16:44;;;;;;;;;4.00;4.00;;;;;10.66;40.63;102155.81;2091129;28;46416;-63
2023/03/28 00:17:45;;;;;;;;;2.20;2.20;;;;;10.66;40.35;102161.13;2090473;27;45195;-63
2023/03/28 00:18:46;;;;;;;;;3.60;3.00;;;;;10.66;40.36;102163.78;2106942;27;46514;-63
2023/03/28 00:19:48;;;;;;;;;4.00;3.75;;;;;10.64;40.41;102166.44;2108502;27;46912;-64
2023/03/28 00:20:49;;;;;;;;;3.00;3.00;;;;;10.63;40.53;102161.13;2105124;27;46365;-64
2023/03/28 00:21:50;;;;;;;;;4.25;3.50;;;;;10.61;40.77;102159.34;2099749;28;45415;-63
2023/03/28 00:22:50;;;;;;;;;5.25;4.25;;;;;10.61;40.58;102166.44;2098968;28;45951;-64
2023/03/28 00:24:01;;;;;;;;;5.50;4.00;;;;;10.61;40.59;102169.97;2104741;28;46140;-63
2023/03/28 00:25:02;;;;;;;;;5.20;4.60;;;;;10.60;40.68;102162.00;2099535;28;46756;-64
2023/03/28 00:26:06;;;;;;;;;2.25;2.25;;;;;10.60;40.73;102160.25;2095961;28;46858;-65
2023/03/28 00:27:07;;;;;;;;;4.40;4.20;;;;;10.60;40.85;102165.56;2096620;28;46059;-63
2023/03/28 00:28:07;;;;;;;;;3.75;3.75;;;;;10.61;40.74;102163.78;2107187;27;45868;-64
2023/03/28 00:29:11;;;;;;;;;5.00;4.00;;;;;10.62;40.74;102165.53;2105470;27;45791;-63
2023/03/28 00:30:11;;;;;;;;;5.20;4.00;;;;;10.60;40.67;102154.94;2103600;28;46745;-63
2023/03/28 00:31:13;;;;;;;;;2.00;2.00;;;;;10.60;40.54;102160.25;2097799;28;46584;-65
2023/03/28 00:32:13;;;;;;;;;5.40;4.60;;;;;10.60;40.96;102154.03;2095618;28;46849;-64
2023/03/28 00:33:13;;;;;;;;;5.00;5.00;;;;;10.59;40.83;102161.13;2106604;27;46194;-63
2023/03/28 00:34:15;;;;;;;;;3.00;3.00;;;;;10.59;41.06;102162.91;2097717;28;46636;-63
2023/03/28 00:35:15;;;;;;;;;5.00;3.20;;;;;10.57;40.86;102151.41;2095947;28;46705;-62
2023/03/28 00:36:25;;;;;;;;;4.00;4.00;;;;;10.55;41.16;102155.81;2106912;27;46108;-64
2023/03/28 00:37:25;;;;;;;;;4.00;4.00;;;;;10.53;40.95;102152.25;2106872;27;46076;-63
2023/03/28 00:38:26;;;;;;;;;4.75;4.75;;;;;10.51;41.03;102157.56;2108775;27;46982;-64
2023/03/28 00:39:28;;;;;;;;;3.00;3.00;;;;;10.49;41.11;102151.38;2088497;28;46184;-63
2023/03/28 00:40:34;;;;;;;;;5.00;4.40;;;;;10.47;41.00;102155.78;2088316;28;45720;-63
2023/03/28 00:41:38;;;;;;;;;3.00;3.00;;;;;10.45;41.24;102157.56;2104673;28;46504;-63
2023/03/28 00:42:42;;;;;;;;;4.60;4.60;;;;;10.45;41.40;102156.69;2106729;27;46235;-62
2023/03/28 00:43:45;;;;;;;;;2.80;2.80;;;;;10.43;41.35;102153.16;2105719;27;45924;-62
2023/03/28 00:44:51;;;;;;;;;3.00;3.00;;;;;10.41;41.15;102155.78;2113042;27;46402;-62
2023/03/28 00:45:51;;;;;;;;;5.00;3.80;;;;;10.40;41.43;102155.78;2109279;27;46812;-62
2023/03/28 00:46:51;;;;;;;;;4.00;3.75;;;;;10.38;41.18;102154.88;2104466;28;46697;-62
2023/03/28 00:48:12;;;;;;;;;4.00;4.00;;;;;10.36;41.35;102156.66;2105823;27;46510;-62
2023/03/28 00:49:23;;;;;;;;;3.40;2.60;;;;;10.34;41.23;102146.03;2105672;27;46529;-63
2023/03/28 00:50:39;;;;;;;;;3.60;3.00;;;;;10.34;41.40;102150.47;2105345;27;46654;-62
2023/03/28 00:51:55;;;;;;;;;2.00;2.00;;;;;10.30;41.22;102153.13;2104776;28;46696;-63
2023/03/28 00:53:07;;;;;;;;;5.00;5.00;;;;;10.29;41.38;102153.09;2103003;28;46731;-62
2023/03/28 00:54:13;;;;;;;;;3.00;3.00;;;;;10.25;41.20;102159.28;2110922;27;46629;-63
2023/03/28 00:55:18;;;;;;;;;5.00;4.20;;;;;10.23;41.19;102155.75;2110932;27;47061;-63
2023/03/28 00:56:22;;;;;;;;;3.00;3.00;;;;;10.21;41.41;102155.75;2104481;28;46981;-63
2023/03/28 00:57:25;;;;;;;;;3.80;3.80;;;;;10.20;41.47;102153.94;2110920;27;46457;-63
2023/03/28 00:58:29;;;;;;;;;4.40;3.40;;;;;10.20;41.74;102151.28;2112870;27;46545;-63
2023/03/28 00:59:33;;;;;;;;;2.00;2.00;;;;;10.19;41.49;102159.25;2113454;27;45719;-62
2023/03/28 01:00:34;;;;;;;;;3.40;3.00;;;;;10.18;41.39;102153.06;2109573;27;46593;-64
2023/03/28 01:01:35;;;;;;;;;4.80;3.80;;;;;10.18;41.50;102158.34;2106025;27;46473;-62
2023/03/28 01:02:35;;;;;;;;;3.00;3.00;;;;;10.19;41.57;102160.13;2106706;27;45453;-63
2023/03/28 01:03:40;;;;;;;;;3.00;3.00;;;;;10.18;41.67;102149.50;2107849;27;46518;-63
2023/03/28 01:04:58;;;;;;;;;3.00;3.00;;;;;10.18;41.69;102158.34;2106099;27;45682;-63
2023/03/28 01:06:03;;;;;;;;;5.00;4.80;;;;;10.17;41.30;102158.34;2114812;27;45705;-63
2023/03/28 01:07:05;;;;;;;;;5.00;5.00;;;;;10.15;41.29;102157.44;2110651;27;45294;-62
2023/03/28 01:08:11;;;;;;;;;4.40;4.40;;;;;10.15;41.32;102147.72;2106856;27;46940;-62
2023/03/28 01:09:15;;;;;;;;;5.00;5.00;;;;;10.13;41.50;102162.75;2102383;27;46347;-64
2023/03/28 01:10:16;;;;;;;;;3.20;3.20;;;;;10.13;41.64;102156.56;2105095;27;46689;-63
2023/03/28 01:11:16;;;;;;;;;5.75;4.50;;;;;10.14;41.69;102153.00;2106998;27;46249;-63
2023/03/28 01:12:19;;;;;;;;;6.50;5.00;;;;;10.15;41.44;102163.63;2107481;27;46716;-63
2023/03/28 01:13:30;;;;;;;;;4.20;4.20;;;;;10.15;41.61;102166.28;2098662;28;45616;-62
2023/03/28 01:14:31;;;;;;;;;5.80;5.80;;;;;10.16;41.71;102162.75;2099374;27;47130;-64
2023/03/28 01:15:31;;;;;;;;;5.50;5.50;;;;;10.19;41.76;102156.59;2106950;27;46448;-62
2023/03/28 01:16:32;;;;;;;;;5.00;4.75;;;;;10.20;41.75;102163.66;2108392;27;46457;-63
2023/03/28 01:17:33;;;;;;;;;5.00;3.75;;;;;10.20;41.71;102153.94;2096602;28;46796;-63
2023/03/28 01:18:36;;;;;;;;;4.60;4.60;;;;;10.22;41.66;102161.94;2096475;28;46841;-63
2023/03/28 01:20:04;;;;;;;;;3.20;3.20;;;;;10.23;41.77;102151.31;2099493;28;46416;-62
2023/03/28 01:21:05;;;;;;;;;5.00;5.00;;;;;10.26;41.59;102153.09;2096852;28;46402;-64
2023/03/28 01:22:26;;;;;;;;;6.25;4.75;;;;;10.25;41.38;102152.19;2097002;28;46274;-62
2023/03/28 01:24:16;;;;;;;;;3.00;3.00;;;;;10.24;41.78;102147.78;2106089;27;46833;-64
2023/03/28 01:25:27;;;;;;;;;6.20;3.60;;;;;10.23;41.35;102148.66;2113214;27;47118;-63
2023/03/28 01:27:01;;;;;;;;;5.40;4.00;;;;;10.23;41.62;102146.00;2106932;27;46463;-64
2023/03/28 01:28:15;;;;;;;;;4.60;3.60;;;;;10.23;41.64;102148.66;2109145;27;46448;-64
2023/03/28 01:29:37;;;;;;;;;4.60;4.00;;;;;10.26;41.72;102142.47;2108497;27;46405;-66
2023/03/28 01:30:50;;;;;;;;;4.00;4.00;;;;;10.27;41.69;102142.47;2107850;27;45874;-62
2023/03/28 01:32:03;;;;;;;;;6.00;3.60;;;;;10.28;41.69;102144.25;2096822;28;47434;-63
2023/03/28 01:33:16;;;;;;;;;4.60;4.60;;;;;10.30;41.49;102147.81;2104310;27;46828;-62
2023/03/28 01:34:50;;;;;;;;;3.00;3.00;;;;;10.32;41.23;102146.03;2111688;27;46862;-62
2023/03/28 01:36:36;;;;;;;;;4.60;4.60;;;;;10.31;41.68;102138.09;2108433;27;46506;-62
2023/03/28 01:37:46;;;;;;;;;4.80;4.80;;;;;10.31;41.51;102138.09;2082646;28;46571;-62
2023/03/28 01:38:58;;;;;;;;;4.20;4.20;;;;;10.30;41.41;102131.91;2082096;28;46849;-62
2023/03/28 01:39:58;;;;;;;;;3.20;3.20;;;;;10.30;41.33;102125.69;2080019;28;46590;-65
2023/03/28 01:41:13;;;;;;;;;5.00;4.00;;;;;10.28;41.16;102130.09;2081408;28;46676;-64
2023/03/28 01:42:48;;;;;;;;;3.60;3.60;;;;;10.23;41.44;102119.47;2072981;28;46578;-63
2023/03/28 01:44:25;;;;;;;;;2.80;2.80;;;;;10.22;41.52;102125.66;2063018;28;46928;-63
2023/03/28 01:45:41;;;;;;;;;3.20;3.00;;;;;10.20;41.37;102127.41;2068100;28;47025;-63
2023/03/28 01:47:22;;;;;;;;;3.00;3.00;;;;;10.17;41.68;102116.78;2063625;28;46023;-65
2023/03/28 01:48:40;;;;;;;;;4.40;4.00;;;;;10.16;41.62;102117.66;2047883;28;45661;-65
2023/03/28 01:49:40;;;;;;;;;3.60;3.60;;;;;10.17;41.67;102110.59;2047445;28;46615;-64
2023/03/28 01:50:48;;;;;;;;;7.50;5.00;;;;;10.16;41.39;102111.47;2046983;28;46775;-66
2023/03/28 01:51:57;;;;;;;;;4.60;3.00;;;;;10.16;41.78;102106.16;2048155;28;46528;-63
2023/03/28 01:53:25;;;;;;;;;2.40;2.40;;;;;10.15;41.50;102110.56;2048198;28;46053;-64
2023/03/28 01:55:13;;;;;;;;;4.80;4.00;;;;;10.14;41.81;102106.16;2047214;28;46412;-64
2023/03/28 01:56:25;;;;;;;;;5.00;4.00;;;;;10.12;41.65;102099.97;2023979;29;46765;-63
2023/03/28 01:57:36;;;;;;;;;5.20;5.00;;;;;10.10;41.74;102101.72;2026266;29;47069;-63
2023/03/28 01:59:08;;;;;;;;;4.80;4.00;;;;;10.07;41.57;102096.44;2026214;29;46226;-64
2023/03/28 02:00:19;;;;;;;;;3.20;3.20;;;;;10.08;41.76;102092.00;2026426;29;47213;-65
2023/03/28 02:01:26;;;;;;;;;3.00;3.00;;;;;10.06;41.81;102097.31;2023637;29;47194;-62
2023/03/28 02:02:40;;;;;;;;;4.20;4.00;;;;;10.05;41.93;102092.00;2023415;29;46933;-64
2023/03/28 02:03:55;;;;;;;;;5.80;3.40;;;;;10.03;41.97;102089.31;2026721;29;46138;-64
2023/03/28 02:04:59;;;;;;;;;3.00;3.00;;;;;10.03;41.75;102094.63;2024620;29;46292;-63
2023/03/28 02:06:03;;;;;;;;;3.60;2.60;;;;;10.02;41.97;102087.56;2023113;29;46370;-64
2023/03/28 02:07:07;;;;;;;;;3.80;3.80;;;;;10.01;42.07;102085.78;2025088;29;46779;-63
2023/03/28 02:08:09;;;;;;;;;3.00;3.00;;;;;9.99;42.08;102077.84;2024632;29;46803;-62
2023/03/28 02:09:10;;;;;;;;;6.40;4.80;;;;;9.98;42.01;102078.72;2027555;29;46758;-62
2023/03/28 02:10:14;;;;;;;;;3.00;3.00;;;;;9.98;41.92;102075.19;2025377;29;46496;-63
2023/03/28 02:11:14;;;;;;;;;3.00;3.00;;;;;9.96;41.93;102075.19;2023996;29;45565;-64
2023/03/28 02:12:23;;;;;;;;;3.50;3.00;;;;;9.96;41.98;102074.28;2025160;29;45909;-63
2023/03/28 02:13:35;;;;;;;;;3.00;3.00;;;;;9.93;41.93;102075.19;2015246;29;46840;-64
2023/03/28 02:14:40;;;;;;;;;4.40;4.40;;;;;9.94;41.83;102073.41;2019768;28;46808;-63
2023/03/28 02:15:44;;;;;;;;;2.40;2.40;;;;;9.93;42.18;102072.53;2031220;28;46700;-64
2023/03/28 02:16:48;;;;;;;;;5.20;4.20;;;;;9.94;42.19;102074.28;2025885;29;45649;-63
2023/03/28 02:17:56;;;;;;;;;3.60;3.00;;;;;9.94;42.12;102074.28;2025099;28;46617;-63
2023/03/28 02:18:58;;;;;;;;;4.60;3.80;;;;;9.95;41.74;102077.84;2031291;29;46759;-63
2023/03/28 02:20:07;;;;;;;;;5.40;5.40;;;;;9.95;42.12;102081.38;2038829;28;46480;-65
2023/03/28 02:21:17;;;;;;;;;4.00;4.00;;;;;9.95;41.98;102080.47;2048639;28;46451;-64
2023/03/28 02:22:30;;;;;;;;;3.00;3.00;;;;;9.93;41.74;102079.59;2047172;28;46667;-62
2023/03/28 02:23:39;;;;;;;;;4.00;4.00;;;;;9.92;41.84;102080.47;2048672;28;46415;-63
2023/03/28 02:24:39;;;;;;;;;3.00;3.00;;;;;9.93;41.92;102082.25;2048966;28;45052;-64
2023/03/28 02:25:40;;;;;;;;;3.00;3.00;;;;;9.93;41.89;102080.47;2044359;28;46278;-64
2023/03/28 02:26:40;;;;;;;;;4.25;4.25;;;;;9.94;42.15;102081.38;2055249;28;45869;-62
2023/03/28 02:27:43;;;;;;;;;3.50;3.50;;;;;9.95;42.02;102077.84;2066861;28;46222;-64
2023/03/28 02:28:45;;;;;;;;;3.00;3.00;;;;;9.95;41.91;102078.72;2071079;28;46415;-64
2023/03/28 02:29:48;;;;;;;;;4.00;3.00;;;;;9.96;42.10;102077.84;2066560;28;46906;-63
2023/03/28 02:30:50;;;;;;;;;5.80;3.20;;;;;9.98;41.83;102081.38;2081256;27;45723;-65
2023/03/28 02:31:50;;;;;;;;;2.60;2.60;;;;;9.97;42.00;102084.91;2105873;28;45627;-64
2023/03/28 02:32:51;;;;;;;;;5.50;5.00;;;;;9.98;42.09;102080.47;2107335;27;46420;-63
2023/03/28 02:33:52;;;;;;;;;3.25;3.25;;;;;9.97;42.15;102076.06;2106094;27;46193;-63
2023/03/28 02:34:54;;;;;;;;;2.75;2.75;;;;;9.98;42.10;102075.19;2106506;27;45765;-64
2023/03/28 02:36:22;;;;;;;;;2.80;2.80;;;;;9.98;42.07;102070.75;2107124;27;46872;-63
2023/03/28 02:37:48;;;;;;;;;2.80;2.80;;;;;9.99;42.10;102063.69;2107274;27;45559;-63
2023/03/28 02:38:58;;;;;;;;;4.00;4.00;;;;;10.01;42.16;102062.81;2106901;27;46487;-63
2023/03/28 02:40:27;;;;;;;;;5.00;5.00;;;;;10.04;42.03;102061.94;2097118;28;46715;-64
2023/03/28 02:42:05;;;;;;;;;5.00;4.00;;;;;10.05;42.13;102062.84;2096810;28;46590;-64
2023/03/28 02:43:18;;;;;;;;;5.60;4.00;;;;;10.06;42.07;102059.28;2097291;28;46614;-64
2023/03/28 02:44:27;;;;;;;;;5.00;5.00;;;;;10.09;42.24;102059.28;2111062;27;46680;-64
2023/03/28 02:45:56;;;;;;;;;5.20;5.20;;;;;10.10;42.14;102059.28;2111825;27;45642;-64
2023/03/28 02:47:20;;;;;;;;;4.80;4.80;;;;;10.11;42.13;102058.41;2087865;28;46698;-64
2023/03/28 02:48:20;;;;;;;;;5.60;5.00;;;;;10.11;42.22;102057.53;2094922;28;46026;-63
2023/03/28 02:49:44;;;;;;;;;4.00;4.00;;;;;10.11;42.29;102050.44;2105954;27;46609;-65
2023/03/28 02:51:39;;;;;;;;;4.00;4.00;;;;;10.12;41.99;102043.38;2110973;27;45983;-62
2023/03/28 02:52:52;;;;;;;;;6.00;6.00;;;;;10.13;42.09;102045.16;2081562;28;47163;-63
2023/03/28 02:54:04;;;;;;;;;4.20;4.00;;;;;10.12;42.07;102046.03;2081491;28;46590;-63
2023/03/28 02:55:28;;;;;;;;;2.00;2.00;;;;;10.11;42.15;102039.84;2079810;28;46921;-63
2023/03/28 02:56:43;;;;;;;;;3.60;3.60;;;;;10.10;42.27;102038.06;2071326;28;46899;-62
2023/03/28 02:58:03;;;;;;;;;3.20;3.20;;;;;10.10;42.37;102034.53;2084084;28;46761;-64
2023/03/28 02:59:27;;;;;;;;;3.40;3.40;;;;;10.10;42.17;102031.88;2082694;28;46627;-63
2023/03/28 03:00:28;;;;;;;;;4.80;4.80;;;;;10.07;42.20;102031.88;2031069;29;46377;-63
2023/03/28 03:01:29;;;;;;;;;5.00;4.50;;;;;10.06;42.37;102032.78;2030826;28;46482;-63
2023/03/28 03:02:32;;;;;;;;;3.00;3.00;;;;;10.03;41.78;102030.97;2040103;28;45459;-64
2023/03/28 03:03:35;;;;;;;;;5.40;4.60;;;;;10.02;42.45;102026.56;2040013;28;46009;-63
2023/03/28 03:04:35;;;;;;;;;4.40;3.60;;;;;10.00;42.05;102023.03;2038697;28;46634;-63
2023/03/28 03:05:36;;;;;;;;;4.00;4.00;;;;;10.00;42.33;102023.91;2039813;28;46369;-63
2023/03/28 03:06:37;;;;;;;;;4.00;4.00;;;;;10.00;42.04;102025.69;2031430;28;46102;-65
2023/03/28 03:07:37;;;;;;;;;5.75;4.75;;;;;9.99;42.43;102027.44;2031032;29;45859;-64
2023/03/28 03:08:38;;;;;;;;;4.00;4.00;;;;;9.97;42.43;102021.25;2035790;28;46435;-63
2023/03/28 03:09:39;;;;;;;;;4.00;4.00;;;;;9.97;42.22;102021.25;2038658;28;47046;-65
2023/03/28 03:10:39;;;;;;;;;4.00;4.00;;;;;9.96;42.30;102024.78;2038411;28;47804;-63
2023/03/28 03:11:40;;;;;;;;;7.25;5.00;;;;;9.96;42.32;102021.25;2038820;28;46410;-63
2023/03/28 03:12:40;;;;;;;;;4.75;4.75;;;;;9.94;42.10;102026.56;2038803;28;45957;-63
2023/03/28 03:13:42;;;;;;;;;6.00;4.50;;;;;9.93;42.46;102022.16;2034993;28;46359;-64
2023/03/28 03:14:43;;;;;;;;;5.40;5.00;;;;;9.94;42.53;102015.06;2032044;28;46197;-63
2023/03/28 03:15:44;;;;;;;;;5.00;5.00;;;;;9.93;42.15;102016.84;2038608;28;46625;-63
2023/03/28 03:16:45;;;;;;;;;5.00;3.60;;;;;9.93;42.22;102019.50;2042788;28;46326;-63
2023/03/28 03:17:46;;;;;;;;;3.00;3.00;;;;;9.94;42.54;102017.72;2046893;28;46848;-63
2023/03/28 03:18:46;;;;;;;;;4.80;4.80;;;;;9.96;42.50;102021.25;2039396;28;46803;-63
2023/03/28 03:19:46;;;;;;;;;4.75;4.00;;;;;9.95;42.36;102015.06;2037584;28;46772;-63
2023/03/28 03:20:49;;;;;;;;;4.00;4.00;;;;;9.96;42.43;102023.91;2038747;28;46633;-64
2023/03/28 03:21:49;;;;;;;;;4.00;4.00;;;;;9.97;42.52;102013.31;2038690;28;46365;-63
2023/03/28 03:22:49;;;;;;;;;3.25;3.00;;;;;9.97;42.32;102018.59;2033137;28;46426;-65
2023/03/28 03:23:51;;;;;;;;;3.75;3.75;;;;;9.96;42.37;102008.88;2038561;28;46837;-64
2023/03/28 03:24:51;;;;;;;;;7.00;4.60;;;;;9.96;42.04;102011.53;2038839;28;46899;-64
2023/03/28 03:25:51;;;;;;;;;4.00;2.75;;;;;9.94;42.08;102010.66;2038486;28;46782;-63
2023/03/28 03:26:52;;;;;;;;;5.25;4.75;;;;;9.94;42.30;102004.47;2029966;29;46331;-63
2023/03/28 03:27:52;;;;;;;;;4.00;4.00;;;;;9.94;42.09;101999.16;2030627;29;46321;-63
2023/03/28 03:28:54;;;;;;;;;5.00;5.00;;;;;9.93;42.39;102006.25;2038808;28;46192;-63
2023/03/28 03:29:54;;;;;;;;;3.40;2.80;;;;;9.93;42.37;102000.06;2054326;28;46435;-63
2023/03/28 03:30:54;;;;;;;;;4.25;4.25;;;;;9.94;42.18;101996.50;2059900;28;46108;-62
2023/03/28 03:31:55;;;;;;;;;4.25;4.25;;;;;9.91;42.08;101996.47;2062647;28;46597;-64
2023/03/28 03:32:55;;;;;;;;;2.00;2.00;;;;;9.91;42.23;101991.19;2062572;28;47284;-64
2023/03/28 03:33:55;;;;;;;;;3.50;2.75;;;;;9.90;42.23;101992.94;2062848;28;46358;-64
2023/03/28 03:34:56;;;;;;;;;3.75;3.75;;;;;9.91;42.23;101988.53;2062705;28;46281;-63
2023/03/28 03:35:56;;;;;;;;;2.75;2.75;;;;;9.90;42.15;101979.69;2062499;28;46568;-63
2023/03/28 03:36:57;;;;;;;;;3.50;3.00;;;;;9.90;42.25;101982.34;2062190;28;46009;-63
2023/03/28 03:37:58;;;;;;;;;3.25;3.25;;;;;9.89;42.41;101979.69;2069788;28;45604;-63
2023/03/28 03:38:58;;;;;;;;;3.00;3.00;;;;;9.88;42.29;101984.13;2108149;27;46743;-64
2023/03/28 03:39:59;;;;;;;;;4.00;4.00;;;;;9.88;42.60;101978.81;2113196;27;46726;-62
2023/03/28 03:41:00;;;;;;;;;3.00;3.00;;;;;9.88;42.34;101980.56;2112126;27;46739;-62
2023/03/28 03:42:01;;;;;;;;;2.75;2.75;;;;;9.86;42.32;101985.00;2113361;27;46349;-62
2023/03/28 03:43:01;;;;;;;;;4.40;3.60;;;;;9.85;42.42;101983.22;2113592;27;46733;-63
2023/03/28 03:44:02;;;;;;;;;4.00;2.50;;;;;9.82;42.33;101983.22;2111315;27;46590;-62
2023/03/28 03:45:03;;;;;;;;;2.00;2.00;;;;;9.80;42.39;101983.25;2101849;28;45352;-63
2023/03/28 03:46:03;;;;;;;;;3.20;3.20;;;;;9.78;42.46;101984.97;2104385;28;47056;-62
2023/03/28 03:47:04;;;;;;;;;2.00;2.00;;;;;9.77;42.30;101984.97;2111853;27;45725;-63
2023/03/28 03:48:05;;;;;;;;;3.00;3.00;;;;;9.73;42.46;101978.78;2113282;27;46447;-62
2023/03/28 03:49:08;;;;;;;;;3.00;3.00;;;;;9.71;42.43;101978.78;2110710;27;46504;-62
2023/03/28 03:50:09;;;;;;;;;5.00;4.20;;;;;9.70;42.58;101982.31;2108661;27;46847;-62
2023/03/28 03:51:09;;;;;;;;;5.60;4.00;;;;;9.68;42.34;101980.56;2103928;28;46521;-61
2023/03/28 03:52:10;;;;;;;;;3.75;3.75;;;;;9.65;42.51;101986.72;2098123;28;46157;-62
2023/03/28 03:53:10;;;;;;;;;3.00;3.00;;;;;9.61;42.56;101982.28;2111168;27;46587;-62
2023/03/28 03:54:10;;;;;;;;;3.00;3.00;;;;;9.59;42.53;101977.88;2080726;28;45473;-64
2023/03/28 03:55:13;;;;;;;;;4.00;4.00;;;;;9.58;42.76;101981.41;2083375;28;46003;-63
2023/03/28 03:56:13;;;;;;;;;4.40;3.00;;;;;9.57;42.99;101983.19;2088457;28;46397;-62
2023/03/28 03:57:14;;;;;;;;;2.00;2.00;;;;;9.55;42.78;101987.59;2095920;28;46235;-62
2023/03/28 03:58:14;;;;;;;;;5.00;5.00;;;;;9.55;42.82;101989.38;2104874;27;46094;-62
2023/03/28 03:59:15;;;;;;;;;2.50;2.50;;;;;9.55;42.97;101982.28;2105707;28;46289;-62
2023/03/28 04:00:15;;;;;;;;;3.00;3.00;;;;;9.55;42.87;101992.91;2105730;27;46019;-62
2023/03/28 04:01:16;;;;;;;;;3.50;3.00;;;;;9.54;42.96;101982.28;2104618;27;46631;-63
2023/03/28 04:02:16;;;;;;;;;3.75;3.25;;;;;9.51;42.98;101987.56;2105018;28;46709;-63
2023/03/28 04:03:16;;;;;;;;;3.25;3.25;;;;;9.47;43.11;101981.38;2095856;28;46518;-62
2023/03/28 04:04:17;;;;;;;;;4.75;4.75;;;;;9.46;43.17;101987.56;2096160;28;46160;-62
2023/03/28 04:05:17;;;;;;;;;3.25;3.25;;;;;9.43;42.93;101976.97;2105044;27;46206;-63
2023/03/28 04:06:18;;;;;;;;;3.00;3.00;;;;;9.42;42.98;101980.50;2104707;27;46776;-63
2023/03/28 04:07:18;;;;;;;;;5.75;4.00;;;;;9.39;43.14;101978.69;2104856;28;46568;-62
2023/03/28 04:08:19;;;;;;;;;3.25;3.00;;;;;9.36;43.35;101976.03;2104826;27;45669;-62
2023/03/28 04:09:21;;;;;;;;;3.50;3.25;;;;;9.35;43.21;101976.03;2104970;27;46798;-62
2023/03/28 04:10:21;;;;;;;;;3.00;3.00;;;;;9.34;43.34;101971.63;2104746;27;46566;-63
2023/03/28 04:11:22;;;;;;;;;3.00;3.00;;;;;9.34;43.62;101982.22;2104575;27;46753;-63
2023/03/28 04:12:22;;;;;;;;;3.00;3.00;;;;;9.35;43.50;101978.69;2105526;28;46046;-62
2023/03/28 04:13:22;;;;;;;;;3.75;3.75;;;;;9.36;43.44;101976.03;2105129;27;45882;-63
2023/03/28 04:14:23;;;;;;;;;3.50;3.50;;;;;9.37;43.45;101975.16;2104496;27;46424;-63
2023/03/28 04:15:23;;;;;;;;;3.00;3.00;;;;;9.36;43.32;101976.03;2104843;28;46291;-63
2023/03/28 04:16:23;;;;;;;;;3.25;3.25;;;;;9.37;43.65;101974.28;2095780;28;46166;-62
2023/03/28 04:17:28;;;;;;;;;4.00;4.00;;;;;9.37;43.33;101977.81;2095671;28;46252;-62
2023/03/28 04:18:30;;;;;;;;;2.60;2.60;;;;;9.37;43.62;101977.81;2105035;28;46639;-63
2023/03/28 04:19:31;;;;;;;;;2.00;2.00;;;;;9.38;43.43;101976.03;2105199;27;46443;-62
2023/03/28 04:20:31;;;;;;;;;3.50;3.50;;;;;9.40;43.69;101977.84;2106107;27;46593;-63
2023/03/28 04:21:34;;;;;;;;;3.25;3.25;;;;;9.39;43.69;101984.00;2104587;28;46571;-63
2023/03/28 04:22:34;;;;;;;;;3.40;2.40;;;;;9.41;43.65;101982.25;2108866;27;45075;-62
2023/03/28 04:23:42;;;;;;;;;3.25;3.25;;;;;9.41;43.30;101978.72;2113315;27;46426;-63
2023/03/28 04:24:43;;;;;;;;;6.00;4.80;;;;;9.40;43.61;101976.94;2095663;28;46844;-63
2023/03/28 04:25:43;;;;;;;;;2.40;2.40;;;;;9.39;43.90;101976.03;2098078;28;46335;-62
2023/03/28 04:26:44;;;;;;;;;3.00;3.00;;;;;9.39;43.55;101980.47;2096125;28;46581;-62
2023/03/28 04:27:47;;;;;;;;;3.50;3.50;;;;;9.40;43.69;101974.28;2105855;27;46903;-63
2023/03/28 04:28:47;;;;;;;;;3.00;3.00;;;;;9.40;43.56;101972.53;2108552;27;46603;-64
2023/03/28 04:29:48;;;;;;;;;6.00;4.00;;;;;9.42;43.74;101969.91;2113378;27;46824;-63
2023/03/28 04:30:52;;;;;;;;;3.50;3.50;;;;;9.42;43.45;101976.06;2110257;27;46661;-65
2023/03/28 04:31:54;;;;;;;;;3.00;3.00;;;;;9.42;43.56;101978.72;2112536;27;46336;-64
2023/03/28 04:32:55;;;;;;;;;6.60;3.00;;;;;9.44;43.57;101973.44;2111668;27;46404;-62
2023/03/28 04:33:56;;;;;;;;;3.00;3.00;;;;;9.46;43.32;101976.06;2110351;27;46051;-62
2023/03/28 04:34:56;;;;;;;;;4.40;4.00;;;;;9.45;43.61;101977.84;2113079;27;46129;-62
2023/03/28 04:36:04;;;;;;;;;6.00;4.00;;;;;9.48;43.72;101972.53;2110840;27;45566;-62
2023/03/28 04:37:05;;;;;;;;;4.00;2.60;;;;;9.50;43.47;101984.03;2112804;27;46551;-62
2023/03/28 04:38:06;;;;;;;;;4.00;2.50;;;;;9.51;43.76;101979.59;2111844;27;46330;-62
2023/03/28 04:39:07;;;;;;;;;3.80;3.80;;;;;9.52;43.65;101974.31;2100220;28;46918;-61
2023/03/28 04:40:11;;;;;;;;;5.50;5.25;;;;;9.52;43.67;101974.31;2102223;28;45984;-62
2023/03/28 04:41:15;;;;;;;;;3.00;3.00;;;;;9.55;43.75;101973.47;2105121;28;46361;-62
2023/03/28 04:42:16;;;;;;;;;3.60;3.00;;;;;9.56;43.71;101968.16;2108584;27;46749;-62
2023/03/28 04:43:16;;;;;;;;;4.25;4.25;;;;;9.56;43.56;101975.22;2111479;27;46340;-61
2023/03/28 04:44:17;;;;;;;;;3.75;3.75;;;;;9.57;43.67;101975.22;2112637;27;45105;-61
2023/03/28 04:45:17;;;;;;;;;3.75;3.75;;;;;9.57;43.63;101967.28;2111923;27;46732;-63
2023/03/28 04:46:18;;;;;;;;;3.75;3.75;;;;;9.57;43.67;101969.94;2112852;27;45030;-63
2023/03/28 04:47:19;;;;;;;;;5.00;4.00;;;;;9.57;43.70;101966.41;2111861;27;46898;-62
2023/03/28 04:48:20;;;;;;;;;3.00;3.00;;;;;9.56;43.66;101964.63;2111568;27;45782;-63
2023/03/28 04:49:21;;;;;;;;;4.00;4.00;;;;;9.56;43.20;101973.47;2109395;27;46335;-63
2023/03/28 04:50:22;;;;;;;;;3.80;3.80;;;;;9.57;43.62;101969.94;2094535;28;46499;-63
2023/03/28 04:51:23;;;;;;;;;6.00;5.50;;;;;9.58;43.63;101963.75;2095029;28;46843;-63
2023/03/28 04:52:24;;;;;;;;;2.80;2.80;;;;;9.60;43.62;101969.03;2095817;28;45572;-63
2023/03/28 04:53:24;;;;;;;;;4.25;4.25;;;;;9.60;43.56;101961.09;2097438;28;46328;-64
2023/03/28 04:54:25;;;;;;;;;3.00;3.00;;;;;9.61;43.67;101965.50;2102651;28;45713;-64
2023/03/28 04:55:27;;;;;;;;;3.40;3.20;;;;;9.60;43.63;101966.41;2096348;28;46914;-64
2023/03/28 04:56:27;;;;;;;;;3.40;3.20;;;;;9.59;43.68;101968.16;2101613;28;46486;-63
2023/03/28 04:57:28;;;;;;;;;4.75;3.75;;;;;9.59;43.68;101975.22;2098538;28;46345;-63
2023/03/28 04:58:28;;;;;;;;;3.75;3.75;;;;;9.58;43.58;101974.34;2090351;28;45411;-64
2023/03/28 04:59:28;;;;;;;;;3.00;3.00;;;;;9.58;43.88;101969.03;2086462;28;46312;-62
2023/03/28 05:00:29;;;;;;;;;3.50;3.00;;;;;9.57;43.52;101969.94;2085365;28;46700;-63
2023/03/28 05:01:29;;;;;;;;;4.00;4.00;;;;;9.57;43.82;101977.00;2079005;28;46590;-63
2023/03/28 05:02:30;;;;;;;;;3.25;3.25;;;;;9.55;43.58;101968.16;2092996;28;46681;-63
2023/03/28 05:03:30;;;;;;;;;3.75;3.75;;;;;9.54;43.99;101969.03;2088559;28;45988;-64
2023/03/28 05:04:30;;;;;;;;;3.00;3.00;;;;;9.52;43.68;101970.78;2086689;28;46188;-63
2023/03/28 05:05:31;;;;;;;;;4.75;4.75;;;;;9.52;43.62;101971.66;2086783;28;46278;-62
2023/03/28 05:06:31;;;;;;;;;5.50;4.00;;;;;9.51;44.00;101967.25;2095110;28;46223;-64